ADDS METAR Data INFO
IDs: Format: Raw Decoded Include TAF

Data at: 0329 UTC 19 Jul 2018

KRGK 190315Z AUTO 00000KT 10SM CLR 19/15 A2998 RMK AO2
KRGK 190256Z AUTO 00000KT 10SM CLR 21/14 A2998 RMK AO2
KRGK 190255Z AUTO 00000KT 10SM CLR 21/14 A2998 RMK AO2
KRGK 190235Z AUTO 00000KT 10SM CLR 21/14 A2998 RMK AO2
KRGK 190215Z AUTO 09004KT 10SM CLR 22/14 A2997 RMK AO2
KRGK 190156Z AUTO 09003KT 10SM CLR 23/13 A2997 RMK AO2
KRGK 190155Z AUTO 09003KT 10SM CLR 23/13 A2997 RMK AO2
KRGK 190135Z AUTO 10004KT 10SM CLR 23/13 A2997 RMK AO2
KRGK 190115Z AUTO 09004KT 10SM CLR 24/14 A2997 RMK AO2
KRGK 190055Z AUTO 09005KT 10SM CLR 25/13 A2998 RMK AO2
KRGK 190035Z AUTO 10004KT 10SM CLR 25/13 A2998 RMK AO2
KRGK 190015Z AUTO 13006KT 10SM CLR 26/13 A2998 RMK AO2
KRGK 182356Z AUTO 13006KT 10SM CLR 27/12 A2999 RMK AO2
KRGK 182355Z AUTO 15005KT 10SM CLR 27/12 A2999 RMK AO2
KRGK 182335Z AUTO 14006KT 10SM CLR 27/13 A2999 RMK AO2
KRGK 182315Z AUTO 10005KT 10SM CLR 27/12 A3000 RMK AO2
KRGK 182255Z AUTO 11007KT 10SM CLR 27/12 A3000 RMK AO2
KRGK 182235Z AUTO 12006KT 10SM CLR 27/12 A3000 RMK AO2
KRGK 182215Z AUTO 14007KT 112V172 10SM SCT110 28/13 A3001 RMK AO2
KRGK 182155Z AUTO 15007KT 122V192 10SM SCT110 27/13 A3001 RMK AO2
KRGK 182135Z AUTO 13005KT 10SM SCT110 27/13 A3002 RMK AO2
KRGK 182115Z AUTO 13005KT 10SM CLR 27/12 A3003 RMK AO2
KRGK 182056Z AUTO 12006KT 10SM CLR 27/12 A3003 RMK AO2
KRGK 182055Z AUTO 12007KT 10SM CLR 27/12 A3003 RMK AO2
KRGK 182035Z AUTO 10004KT 10SM CLR 27/12 A3004 RMK AO2
KRGK 182015Z AUTO 10006KT 10SM CLR 27/12 A3004 RMK AO2
KRGK 181956Z AUTO 10006KT 10SM CLR 27/12 A3005 RMK AO2
KRGK 181955Z AUTO 11006KT 10SM CLR 27/12 A3005 RMK AO2
KRGK 181935Z AUTO 16004KT 10SM SCT110 27/12 A3005 RMK AO2
KRGK 181915Z AUTO 11006KT 10SM CLR 27/12 A3005 RMK AO2
KRGK 181856Z AUTO 17006KT 10SM CLR 27/12 A3006 RMK AO2
KRGK 181855Z AUTO 15005KT 10SM CLR 27/12 A3006 RMK AO2
KRGK 181835Z AUTO 12005KT 10SM CLR 27/12 A3006 RMK AO2
KRGK 181815Z AUTO 10006KT 10SM CLR 27/12 A3007 RMK AO2
KRGK 181756Z AUTO 09006KT 10SM CLR 27/12 A3007 RMK AO2
KRGK 181755Z AUTO 10007KT 042V262 10SM CLR 27/12 A3007 RMK AO2
KRGK 181735Z AUTO 14005KT 10SM CLR 26/12 A3008 RMK AO2
KRGK 181715Z AUTO 11004KT 10SM CLR 26/12 A3008 RMK AO2
KRGK 181656Z AUTO 19005KT 10SM CLR 26/12 A3008 RMK AO2
KRGK 181655Z AUTO 16004KT 10SM CLR 26/12 A3008 RMK AO2
KRGK 181635Z AUTO 17003KT 10SM CLR 26/12 A3009 RMK AO2
KRGK 181615Z AUTO 15003KT 10SM CLR 25/13 A3009 RMK AO2
KRGK 181556Z AUTO 00000KT 10SM CLR 25/13 A3010 RMK AO2
KRGK 181555Z AUTO 00000KT 10SM CLR 25/13 A3010 RMK AO2
KRGK 181535Z AUTO 00000KT 10SM CLR 24/14 A3010 RMK AO2
KRGK 181515Z AUTO 00000KT 10SM CLR 23/14 A3010 RMK AO2
KRGK 181456Z AUTO 08003KT 10SM CLR 23/15 A3011 RMK AO2
KRGK 181455Z AUTO 11003KT 10SM CLR 23/15 A3011 RMK AO2
KRGK 181435Z AUTO 10003KT 10SM CLR 22/16 A3011 RMK AO2
KRGK 181415Z AUTO 13004KT 10SM CLR 22/16 A3011 RMK AO2
KRGK 181356Z AUTO 15003KT 10SM CLR 22/16 A3011 RMK AO2
KRGK 181355Z AUTO 16003KT 10SM CLR 22/16 A3012 RMK AO2
KRGK 181335Z AUTO 00000KT 10SM CLR 21/16 A3012 RMK AO2
KRGK 181315Z AUTO 00000KT 10SM CLR 20/16 A3012 RMK AO2
KRGK 181256Z AUTO 00000KT 10SM CLR 19/16 A3013 RMK AO2
KRGK 181255Z AUTO 00000KT 10SM CLR 19/16 A3013 RMK AO2
KRGK 181235Z AUTO 00000KT 10SM CLR 18/15 A3012 RMK AO2
KRGK 181215Z AUTO 00000KT 10SM CLR 16/15 A3012 RMK AO2
KRGK 181156Z AUTO 00000KT 10SM CLR 15/14 A3012 RMK AO2
KRGK 181155Z AUTO 04003KT 10SM CLR 15/14 A3012 RMK AO2
KRGK 181135Z AUTO 04003KT 10SM CLR 14/13 A3012 RMK AO2
KRGK 181115Z AUTO 00000KT 10SM CLR 13/12 A3012 RMK AO2
KRGK 181056Z AUTO 00000KT 10SM CLR 13/12 A3013 RMK AO2
KRGK 181055Z AUTO 00000KT 10SM CLR 13/12 A3013 RMK AO2
KRGK 181035Z AUTO 00000KT 10SM CLR 14/13 A3012 RMK AO2
KRGK 181015Z AUTO 00000KT 10SM CLR 14/12 A3012 RMK AO2
KRGK 180956Z AUTO 00000KT 10SM CLR 13/13 A3012 RMK AO2
KRGK 180955Z AUTO 00000KT 10SM CLR 13/13 A3012 RMK AO2
KRGK 180935Z AUTO 00000KT 10SM CLR 13/12 A3012 RMK AO2
KRGK 180915Z AUTO 00000KT 10SM CLR 13/13 A3012 RMK AO2
KRGK 180856Z AUTO 00000KT 10SM CLR 13/13 A3011 RMK AO2
KRGK 180855Z AUTO 00000KT 10SM CLR 13/13 A3011 RMK AO2
KRGK 180835Z AUTO 00000KT 10SM CLR 13/13 A3011 RMK AO2
KRGK 180815Z AUTO 36003KT 10SM CLR 14/13 A3011 RMK AO2
KRGK 180756Z AUTO 00000KT 10SM CLR 14/13 A3011 RMK AO2
KRGK 180755Z AUTO 00000KT 10SM CLR 14/13 A3011 RMK AO2
KRGK 180735Z AUTO 00000KT 10SM CLR 14/13 A3011 RMK AO2
KRGK 180715Z AUTO 00000KT 10SM CLR 14/13 A3011 RMK AO2
KRGK 180656Z AUTO 00000KT 10SM CLR 15/13 A3011 RMK AO2
KRGK 180655Z AUTO 00000KT 10SM CLR 15/13 A3011 RMK AO2
KRGK 180635Z AUTO 00000KT 10SM CLR 14/13 A3011 RMK AO2
KRGK 180615Z AUTO 01003KT 10SM CLR 15/13 A3011 RMK AO2
KRGK 180556Z AUTO 00000KT 10SM CLR 15/13 A3011 RMK AO2
KRGK 180555Z AUTO 00000KT 10SM CLR 15/13 A3011 RMK AO2
KRGK 180535Z AUTO 05003KT 10SM CLR 15/14 A3010 RMK AO2
KRGK 180515Z AUTO 02003KT 10SM CLR 15/14 A3011 RMK AO2
KRGK 180455Z AUTO 05003KT 10SM CLR 16/13 A3010 RMK AO2
KRGK 180435Z AUTO 00000KT 10SM CLR 16/14 A3010 RMK AO2
KRGK 180415Z AUTO 00000KT 10SM CLR 16/13 A3010 RMK AO2
KRGK 180355Z AUTO 00000KT 10SM CLR 17/13 A3009 RMK AO2
KRGK 180335Z AUTO 00000KT 10SM CLR 17/13 A3010 RMK AO2
KRGK 180316Z AUTO 00000KT 10SM CLR 18/13 A3010 RMK AO2
KRGK 180315Z AUTO 00000KT 10SM CLR 18/13 A3010 RMK AO2
KRGK 180255Z AUTO 00000KT 10SM CLR 18/13 A3009 RMK AO2
KRGK 180235Z AUTO 00000KT 5SM HZ CLR 18/13 A3009 RMK AO2
KRGK 180216Z AUTO 00000KT 7SM CLR 19/14 A3009 RMK AO2
KRGK 180215Z AUTO 00000KT 7SM CLR 19/14 A3009 RMK AO2
KRGK 180155Z AUTO 00000KT 10SM CLR 19/14 A3009 RMK AO2
KRGK 180135Z AUTO 00000KT 10SM CLR 21/14 A3009 RMK AO2
KRGK 180116Z AUTO 00000KT 10SM CLR 22/16 A3009 RMK AO2
KRGK 180115Z AUTO 00000KT 10SM CLR 22/16 A3009 RMK AO2
KRGK 180055Z AUTO 00000KT 10SM CLR 24/15 A3009 RMK AO2
KRGK 180035Z AUTO 00000KT 10SM CLR 25/10 A3009 RMK AO2
KRGK 180015Z AUTO 00000KT 10SM CLR 26/11 A3009 RMK AO2
KRGK 172355Z AUTO 02003KT 10SM CLR 26/11 A3009 RMK AO2
KRGK 172336Z AUTO 00000KT 10SM CLR 26/09 A3009 RMK AO2
KRGK 172335Z AUTO 00000KT 10SM CLR 26/09 A3009 RMK AO2
KRGK 172315Z AUTO 02003KT 10SM CLR 26/11 A3009 RMK AO2
KRGK 172256Z AUTO 00000KT 10SM CLR 26/10 A3009 RMK AO2
KRGK 172255Z AUTO 02003KT 10SM CLR 26/10 A3009 RMK AO2
KRGK 172235Z AUTO 03004KT 10SM CLR 26/10 A3009 RMK AO2
KRGK 172215Z AUTO 33004KT 10SM CLR 26/09 A3009 RMK AO2
KRGK 172156Z AUTO 00000KT 10SM CLR 26/09 A3009 RMK AO2
KRGK 172155Z AUTO 00000KT 10SM CLR 26/09 A3009 RMK AO2
KRGK 172135Z AUTO 07004KT 10SM CLR 27/10 A3010 RMK AO2
KRGK 172115Z AUTO 00000KT 10SM CLR 26/10 A3011 RMK AO2
KRGK 172056Z AUTO 36003KT 10SM CLR 26/10 A3011 RMK AO2
KRGK 172055Z AUTO 00000KT 10SM CLR 26/10 A3011 RMK AO2
KRGK 172035Z AUTO 36003KT 5SM HZ CLR 26/10 A3011 RMK AO2
KRGK 172015Z AUTO 04003KT 10SM SCT050 26/10 A3011 RMK AO2
KRGK 171955Z AUTO 33004KT 10SM CLR 26/10 A3012 RMK AO2
KRGK 171935Z AUTO 35006KT 10SM SCT049 26/10 A3012 RMK AO2
KRGK 171915Z AUTO 02004KT 10SM SCT049 26/10 A3013 RMK AO2
KRGK 171856Z AUTO 05006KT 10SM SCT049 26/10 A3013 RMK AO2
KRGK 171855Z AUTO 06005KT 10SM SCT049 26/10 A3013 RMK AO2
KRGK 171835Z AUTO 02004KT 10SM CLR 25/10 A3013 RMK AO2
KRGK 171815Z AUTO 09003KT 10SM SCT049 25/10 A3013 RMK AO2
KRGK 171755Z AUTO 01003KT 10SM SCT049 25/10 A3013 RMK AO2
KRGK 171735Z AUTO 32004KT 10SM SCT049 25/11 A3013 RMK AO2
KRGK 171715Z AUTO 36005KT 10SM SCT049 24/10 A3013 RMK AO2
KRGK 171655Z AUTO 32005KT 10SM CLR 24/10 A3014 RMK AO2
KRGK 171635Z AUTO 35004KT 10SM CLR 24/10 A3014 RMK AO2
KRGK 171615Z AUTO 00000KT 10SM CLR 23/10 A3014 RMK AO2
KRGK 171556Z AUTO 00000KT 10SM CLR 24/09 A3014 RMK AO2
KRGK 171535Z AUTO 08004KT 10SM CLR 23/11 A3013 RMK AO2